sensor_id;sensor_type;location;lat;lon;timestamp;pressure;altitude;pressure_sealevel;temperature;humidity
9077;BME280;4574;51.072;17.174;2022-10-29T00:01:10;100682.50;;;14.15;100.00
9077;BME280;4574;51.072;17.174;2022-10-29T00:03:40;100677.44;;;14.12;100.00
9077;BME280;4574;51.072;17.174;2022-10-29T00:06:10;100674.72;;;14.04;100.00
9077;BME280;4574;51.072;17.174;2022-10-29T00:08:41;100674.06;;;14.02;100.00
9077;BME280;4574;51.072;17.174;2022-10-29T00:11:12;100664.34;;;13.93;100.00
9077;BME280;4574;51.072;17.174;2022-10-29T00:13:41;100672.66;;;13.90;100.00
9077;BME280;4574;51.072;17.174;2022-10-29T00:16:12;100674.47;;;13.89;100.00
9077;BME280;4574;51.072;17.174;2022-10-29T00:18:41;100671.97;;;13.88;100.00
9077;BME280;4574;51.072;17.174;2022-10-29T00:21:11;100686.31;;;13.95;100.00
9077;BME280;4574;51.072;17.174;2022-10-29T00:23:42;100684.66;;;13.94;100.00
9077;BME280;4574;51.072;17.174;2022-10-29T00:26:10;100687.28;;;13.86;100.00
9077;BME280;4574;51.072;17.174;2022-10-29T00:28:39;100679.97;;;13.88;100.00
9077;BME280;4574;51.072;17.174;2022-10-29T00:31:09;100678.59;;;13.84;100.00
9077;BME280;4574;51.072;17.174;2022-10-29T00:33:38;100686.84;;;13.73;100.00
9077;BME280;4574;51.072;17.174;2022-10-29T00:36:09;100678.19;;;13.71;100.00
9077;BME280;4574;51.072;17.174;2022-10-29T00:38:39;100683.34;;;13.55;100.00
9077;BME280;4574;51.072;17.174;2022-10-29T00:44:50;100674.97;;;13.25;100.00
9077;BME280;4574;51.072;17.174;2022-10-29T00:47:21;100673.44;;;13.22;100.00
9077;BME280;4574;51.072;17.174;2022-10-29T00:49:54;100670.03;;;13.30;100.00
9077;BME280;4574;51.072;17.174;2022-10-29T00:52:25;100669.78;;;13.23;100.00
9077;BME280;4574;51.072;17.174;2022-10-29T00:54:59;100666.81;;;13.26;100.00
9077;BME280;4574;51.072;17.174;2022-10-29T00:57:34;100653.25;;;13.12;100.00
9077;BME280;4574;51.072;17.174;2022-10-29T01:00:06;100660.59;;;13.18;100.00
9077;BME280;4574;51.072;17.174;2022-10-29T01:02:35;100659.94;;;13.16;100.00
9077;BME280;4574;51.072;17.174;2022-10-29T01:05:06;100659.69;;;13.09;100.00
9077;BME280;4574;51.072;17.174;2022-10-29T01:07:36;100663.31;;;13.08;100.00
9077;BME280;4574;51.072;17.174;2022-10-29T01:10:05;100660.22;;;13.13;100.00
9077;BME280;4574;51.072;17.174;2022-10-29T01:13:04;100670.38;;;13.17;100.00
9077;BME280;4574;51.072;17.174;2022-10-29T01:15:41;100671.06;;;13.19;100.00
9077;BME280;4574;51.072;17.174;2022-10-29T01:18:17;100666.13;;;13.24;100.00
9077;BME280;4574;51.072;17.174;2022-10-29T01:24:28;100672.88;;;13.36;100.00
9077;BME280;4574;51.072;17.174;2022-10-29T01:27:30;100672.56;;;13.39;100.00
9077;BME280;4574;51.072;17.174;2022-10-29T01:30:09;100675.91;;;13.41;100.00
9077;BME280;4574;51.072;17.174;2022-10-29T01:32:50;100665.44;;;13.39;100.00
9077;BME280;4574;51.072;17.174;2022-10-29T01:35:28;100676.09;;;13.39;100.00
9077;BME280;4574;51.072;17.174;2022-10-29T01:38:09;100667.94;;;13.41;100.00
9077;BME280;4574;51.072;17.174;2022-10-29T01:40:46;100658.97;;;13.42;100.00
9077;BME280;4574;51.072;17.174;2022-10-29T01:43:20;100661.19;;;13.46;100.00
9077;BME280;4574;51.072;17.174;2022-10-29T01:45:53;100658.28;;;13.40;100.00
9077;BME280;4574;51.072;17.174;2022-10-29T01:48:29;100663.84;;;13.29;100.00
9077;BME280;4574;51.072;17.174;2022-10-29T01:51:03;100664.75;;;13.20;100.00
9077;BME280;4574;51.072;17.174;2022-10-29T01:53:35;100666.31;;;13.23;100.00
9077;BME280;4574;51.072;17.174;2022-10-29T01:56:04;100665.16;;;13.25;100.00
9077;BME280;4574;51.072;17.174;2022-10-29T01:58:35;100667.44;;;13.20;100.00
9077;BME280;4574;51.072;17.174;2022-10-29T02:01:12;100667.28;;;13.22;100.00
9077;BME280;4574;51.072;17.174;2022-10-29T02:03:52;100668.78;;;13.24;100.00
9077;BME280;4574;51.072;17.174;2022-10-29T02:06:32;100672.13;;;13.26;100.00
9077;BME280;4574;51.072;17.174;2022-10-29T02:09:07;100678.81;;;13.30;100.00
9077;BME280;4574;51.072;17.174;2022-10-29T02:11:45;100675.84;;;13.33;100.00
9077;BME280;4574;51.072;17.174;2022-10-29T02:14:17;100674.88;;;13.34;100.00
9077;BME280;4574;51.072;17.174;2022-10-29T02:16:48;100671.06;;;13.37;100.00
9077;BME280;4574;51.072;17.174;2022-10-29T02:19:18;100660.81;;;13.41;100.00
9077;BME280;4574;51.072;17.174;2022-10-29T02:21:49;100661.63;;;13.42;100.00
9077;BME280;4574;51.072;17.174;2022-10-29T02:24:17;100647.34;;;13.43;100.00
9077;BME280;4574;51.072;17.174;2022-10-29T02:26:46;100652.66;;;13.43;100.00
9077;BME280;4574;51.072;17.174;2022-10-29T02:29:14;100646.22;;;13.45;100.00
9077;BME280;4574;51.072;17.174;2022-10-29T02:31:42;100643.69;;;13.44;100.00
9077;BME280;4574;51.072;17.174;2022-10-29T02:34:11;100644.53;;;13.44;100.00
9077;BME280;4574;51.072;17.174;2022-10-29T02:36:41;100644.63;;;13.35;100.00
9077;BME280;4574;51.072;17.174;2022-10-29T02:39:09;100649.81;;;13.37;100.00
9077;BME280;4574;51.072;17.174;2022-10-29T02:41:38;100640.97;;;13.36;100.00
9077;BME280;4574;51.072;17.174;2022-10-29T02:44:06;100638.47;;;13.35;100.00
9077;BME280;4574;51.072;17.174;2022-10-29T02:46:34;100641.97;;;13.35;100.00
9077;BME280;4574;51.072;17.174;2022-10-29T02:49:05;100638.19;;;13.38;100.00
9077;BME280;4574;51.072;17.174;2022-10-29T02:51:34;100639.97;;;13.37;100.00
9077;BME280;4574;51.072;17.174;2022-10-29T02:54:04;100608.63;;;13.23;100.00
9077;BME280;4574;51.072;17.174;2022-10-29T02:56:32;100630.34;;;13.36;100.00
9077;BME280;4574;51.072;17.174;2022-10-29T02:59:00;100625.31;;;13.33;100.00
9077;BME280;4574;51.072;17.174;2022-10-29T03:01:33;100611.91;;;13.35;100.00
9077;BME280;4574;51.072;17.174;2022-10-29T03:04:01;100614.06;;;13.39;100.00
9077;BME280;4574;51.072;17.174;2022-10-29T03:06:30;100614.94;;;13.39;100.00
9077;BME280;4574;51.072;17.174;2022-10-29T03:08:58;100623.72;;;13.40;100.00
9077;BME280;4574;51.072;17.174;2022-10-29T03:11:29;100622.72;;;13.41;100.00
9077;BME280;4574;51.072;17.174;2022-10-29T03:13:57;100621.91;;;13.40;100.00
9077;BME280;4574;51.072;17.174;2022-10-29T03:16:25;100626.06;;;13.43;100.00
9077;BME280;4574;51.072;17.174;2022-10-29T03:18:54;100634.59;;;13.46;100.00
9077;BME280;4574;51.072;17.174;2022-10-29T03:21:22;100631.44;;;13.51;100.00
9077;BME280;4574;51.072;17.174;2022-10-29T03:23:51;100639.44;;;13.51;100.00
9077;BME280;4574;51.072;17.174;2022-10-29T03:26:20;100635.78;;;13.52;100.00
9077;BME280;4574;51.072;17.174;2022-10-29T03:28:50;100655.06;;;13.54;100.00
9077;BME280;4574;51.072;17.174;2022-10-29T03:31:18;100645.28;;;13.54;100.00
9077;BME280;4574;51.072;17.174;2022-10-29T03:33:46;100641.63;;;13.55;100.00
9077;BME280;4574;51.072;17.174;2022-10-29T03:36:15;100647.63;;;13.57;100.00
9077;BME280;4574;51.072;17.174;2022-10-29T03:38:43;100649.44;;;13.57;100.00
9077;BME280;4574;51.072;17.174;2022-10-29T03:41:12;100644.13;;;13.57;100.00
9077;BME280;4574;51.072;17.174;2022-10-29T03:43:40;100647.47;;;13.59;100.00
9077;BME280;4574;51.072;17.174;2022-10-29T03:46:10;100645.78;;;13.58;100.00
9077;BME280;4574;51.072;17.174;2022-10-29T03:48:38;100642.16;;;13.59;100.00
9077;BME280;4574;51.072;17.174;2022-10-29T03:51:07;100634.78;;;13.53;100.00
9077;BME280;4574;51.072;17.174;2022-10-29T03:53:36;100647.31;;;13.60;100.00
9077;BME280;4574;51.072;17.174;2022-10-29T03:56:05;100661.16;;;13.64;100.00
9077;BME280;4574;51.072;17.174;2022-10-29T03:58:34;100654.84;;;13.65;100.00
9077;BME280;4574;51.072;17.174;2022-10-29T04:01:04;100655.53;;;13.67;100.00
9077;BME280;4574;51.072;17.174;2022-10-29T04:03:35;100652.88;;;13.67;100.00
9077;BME280;4574;51.072;17.174;2022-10-29T04:06:09;100650.00;;;13.60;100.00
9077;BME280;4574;51.072;17.174;2022-10-29T04:08:37;100653.88;;;13.66;100.00
9077;BME280;4574;51.072;17.174;2022-10-29T04:11:08;100665.63;;;13.63;100.00
9077;BME280;4574;51.072;17.174;2022-10-29T04:13:37;100675.59;;;13.61;100.00
9077;BME280;4574;51.072;17.174;2022-10-29T04:16:06;100668.75;;;13.59;100.00
9077;BME280;4574;51.072;17.174;2022-10-29T04:18:36;100668.91;;;13.57;100.00
9077;BME280;4574;51.072;17.174;2022-10-29T04:21:04;100678.03;;;13.55;100.00
9077;BME280;4574;51.072;17.174;2022-10-29T04:23:53;100677.22;;;13.54;100.00
9077;BME280;4574;51.072;17.174;2022-10-29T04:26:41;100682.00;;;13.51;100.00
9077;BME280;4574;51.072;17.174;2022-10-29T04:29:30;100677.59;;;13.42;100.00
9077;BME280;4574;51.072;17.174;2022-10-29T04:31:58;100694.91;;;13.46;100.00
9077;BME280;4574;51.072;17.174;2022-10-29T04:34:28;100697.88;;;13.43;100.00
9077;BME280;4574;51.072;17.174;2022-10-29T04:36:56;100695.69;;;13.38;100.00
9077;BME280;4574;51.072;17.174;2022-10-29T04:39:25;100682.63;;;13.28;100.00
9077;BME280;4574;51.072;17.174;2022-10-29T04:41:53;100702.13;;;13.36;100.00
9077;BME280;4574;51.072;17.174;2022-10-29T04:44:21;100706.78;;;13.34;100.00
9077;BME280;4574;51.072;17.174;2022-10-29T04:46:50;100708.75;;;13.32;100.00
9077;BME280;4574;51.072;17.174;2022-10-29T04:49:18;100707.06;;;13.31;100.00
9077;BME280;4574;51.072;17.174;2022-10-29T04:51:48;100709.22;;;13.28;100.00
9077;BME280;4574;51.072;17.174;2022-10-29T04:54:16;100709.34;;;13.26;100.00
9077;BME280;4574;51.072;17.174;2022-10-29T04:56:45;100716.66;;;13.24;100.00
9077;BME280;4574;51.072;17.174;2022-10-29T04:59:13;100716.94;;;13.21;100.00
9077;BME280;4574;51.072;17.174;2022-10-29T05:01:42;100717.25;;;13.18;100.00
9077;BME280;4574;51.072;17.174;2022-10-29T05:04:10;100715.88;;;13.14;100.00
9077;BME280;4574;51.072;17.174;2022-10-29T05:06:39;100712.53;;;13.12;100.00
9077;BME280;4574;51.072;17.174;2022-10-29T05:09:08;100714.50;;;13.10;100.00
9077;BME280;4574;51.072;17.174;2022-10-29T05:11:37;100713.81;;;13.08;100.00
9077;BME280;4574;51.072;17.174;2022-10-29T05:14:05;100715.81;;;13.06;100.00
9077;BME280;4574;51.072;17.174;2022-10-29T05:16:33;100720.44;;;13.04;100.00
9077;BME280;4574;51.072;17.174;2022-10-29T05:19:02;100733.03;;;13.02;100.00
9077;BME280;4574;51.072;17.174;2022-10-29T05:21:31;100724.38;;;13.00;100.00
9077;BME280;4574;51.072;17.174;2022-10-29T05:24:00;100720.06;;;12.99;100.00
9077;BME280;4574;51.072;17.174;2022-10-29T05:26:30;100726.34;;;12.98;100.00
9077;BME280;4574;51.072;17.174;2022-10-29T05:28:59;100730.97;;;12.96;100.00
9077;BME280;4574;51.072;17.174;2022-10-29T05:31:27;100732.81;;;12.96;100.00
9077;BME280;4574;51.072;17.174;2022-10-29T05:33:56;100733.94;;;12.93;100.00
9077;BME280;4574;51.072;17.174;2022-10-29T05:36:24;100727.81;;;12.83;100.00
9077;BME280;4574;51.072;17.174;2022-10-29T05:38:52;100744.13;;;12.88;100.00
9077;BME280;4574;51.072;17.174;2022-10-29T05:41:21;100748.47;;;12.89;100.00
9077;BME280;4574;51.072;17.174;2022-10-29T05:43:51;100752.97;;;12.89;100.00
9077;BME280;4574;51.072;17.174;2022-10-29T05:46:23;100758.41;;;12.87;100.00
9077;BME280;4574;51.072;17.174;2022-10-29T05:48:51;100760.25;;;12.87;100.00
9077;BME280;4574;51.072;17.174;2022-10-29T05:51:19;100761.38;;;12.84;100.00
9077;BME280;4574;51.072;17.174;2022-10-29T05:53:48;100765.16;;;12.82;100.00
9077;BME280;4574;51.072;17.174;2022-10-29T05:56:16;100768.94;;;12.79;100.00
9077;BME280;4574;51.072;17.174;2022-10-29T05:58:47;100766.44;;;12.78;100.00
9077;BME280;4574;51.072;17.174;2022-10-29T06:01:18;100771.19;;;12.74;100.00
9077;BME280;4574;51.072;17.174;2022-10-29T06:03:46;100769.53;;;12.73;100.00
9077;BME280;4574;51.072;17.174;2022-10-29T06:06:15;100767.84;;;12.72;100.00
9077;BME280;4574;51.072;17.174;2022-10-29T06:08:43;100763.53;;;12.71;100.00
9077;BME280;4574;51.072;17.174;2022-10-29T06:11:12;100776.81;;;12.71;100.00
9077;BME280;4574;51.072;17.174;2022-10-29T06:13:40;100764.81;;;12.67;100.00
9077;BME280;4574;51.072;17.174;2022-10-29T06:16:08;100769.13;;;12.68;100.00
9077;BME280;4574;51.072;17.174;2022-10-29T06:18:38;100769.81;;;12.70;100.00
9077;BME280;4574;51.072;17.174;2022-10-29T06:21:07;100772.31;;;12.72;100.00
9077;BME280;4574;51.072;17.174;2022-10-29T06:23:37;100770.09;;;12.77;100.00
9077;BME280;4574;51.072;17.174;2022-10-29T06:26:05;100772.28;;;12.81;100.00
9077;BME280;4574;51.072;17.174;2022-10-29T06:28:34;100782.50;;;12.86;100.00
9077;BME280;4574;51.072;17.174;2022-10-29T06:31:03;100772.13;;;12.92;100.00
9077;BME280;4574;51.072;17.174;2022-10-29T06:33:31;100773.19;;;12.99;100.00
9077;BME280;4574;51.072;17.174;2022-10-29T06:36:01;100779.47;;;13.08;100.00
9077;BME280;4574;51.072;17.174;2022-10-29T06:38:29;100779.97;;;13.11;100.00
9077;BME280;4574;51.072;17.174;2022-10-29T06:40:58;100778.94;;;13.22;100.00
9077;BME280;4574;51.072;17.174;2022-10-29T06:43:26;100791.47;;;13.29;100.00
9077;BME280;4574;51.072;17.174;2022-10-29T06:45:55;100789.38;;;13.33;100.00
9077;BME280;4574;51.072;17.174;2022-10-29T06:48:24;100793.25;;;13.38;100.00
9077;BME280;4574;51.072;17.174;2022-10-29T06:50:52;100797.97;;;13.44;100.00
9077;BME280;4574;51.072;17.174;2022-10-29T06:53:23;100797.53;;;13.48;100.00
9077;BME280;4574;51.072;17.174;2022-10-29T06:55:52;100790.66;;;13.46;100.00
9077;BME280;4574;51.072;17.174;2022-10-29T06:58:20;100807.38;;;13.56;100.00
9077;BME280;4574;51.072;17.174;2022-10-29T07:00:49;100804.28;;;13.60;100.00
9077;BME280;4574;51.072;17.174;2022-10-29T07:03:19;100796.16;;;13.62;100.00
9077;BME280;4574;51.072;17.174;2022-10-29T07:05:54;100809.75;;;13.76;100.00
9077;BME280;4574;51.072;17.174;2022-10-29T07:08:24;100802.31;;;13.80;100.00
9077;BME280;4574;51.072;17.174;2022-10-29T07:10:53;100798.38;;;13.84;100.00
9077;BME280;4574;51.072;17.174;2022-10-29T07:13:22;100804.56;;;13.92;100.00
9077;BME280;4574;51.072;17.174;2022-10-29T07:15:50;100804.81;;;13.99;100.00
9077;BME280;4574;51.072;17.174;2022-10-29T07:18:18;100805.88;;;14.06;100.00
9077;BME280;4574;51.072;17.174;2022-10-29T07:20:47;100795.28;;;14.14;100.00
9077;BME280;4574;51.072;17.174;2022-10-29T07:23:15;100794.19;;;14.24;100.00
9077;BME280;4574;51.072;17.174;2022-10-29T07:25:45;100791.81;;;14.39;100.00
9077;BME280;4574;51.072;17.174;2022-10-29T07:28:15;100791.56;;;14.50;100.00
9077;BME280;4574;51.072;17.174;2022-10-29T07:30:44;100798.28;;;14.62;100.00
9077;BME280;4574;51.072;17.174;2022-10-29T07:33:13;100793.66;;;14.72;100.00
9077;BME280;4574;51.072;17.174;2022-10-29T07:35:42;100799.41;;;14.84;100.00
9077;BME280;4574;51.072;17.174;2022-10-29T07:38:11;100803.44;;;14.96;100.00
9077;BME280;4574;51.072;17.174;2022-10-29T07:40:47;100803.81;;;15.09;100.00
9077;BME280;4574;51.072;17.174;2022-10-29T07:43:16;100785.88;;;15.19;100.00
9077;BME280;4574;51.072;17.174;2022-10-29T07:45:45;100793.53;;;15.22;100.00
9077;BME280;4574;51.072;17.174;2022-10-29T07:48:16;100796.97;;;15.32;100.00
9077;BME280;4574;51.072;17.174;2022-10-29T07:50:44;100795.31;;;15.39;100.00
9077;BME280;4574;51.072;17.174;2022-10-29T07:53:13;100795.00;;;15.42;100.00
9077;BME280;4574;51.072;17.174;2022-10-29T07:55:42;100796.50;;;15.53;100.00
9077;BME280;4574;51.072;17.174;2022-10-29T07:58:12;100797.00;;;15.56;100.00
9077;BME280;4574;51.072;17.174;2022-10-29T08:00:40;100807.03;;;15.62;100.00
9077;BME280;4574;51.072;17.174;2022-10-29T08:03:09;100794.84;;;15.68;100.00
9077;BME280;4574;51.072;17.174;2022-10-29T08:05:39;100806.19;;;15.78;100.00
9077;BME280;4574;51.072;17.174;2022-10-29T08:08:09;100794.38;;;15.80;100.00
9077;BME280;4574;51.072;17.174;2022-10-29T08:10:38;100801.88;;;15.93;100.00
9077;BME280;4574;51.072;17.174;2022-10-29T08:13:06;100801.53;;;16.04;100.00
9077;BME280;4574;51.072;17.174;2022-10-29T08:15:36;100814.56;;;16.14;100.00
9077;BME280;4574;51.072;17.174;2022-10-29T08:18:10;100818.06;;;16.23;100.00
9077;BME280;4574;51.072;17.174;2022-10-29T08:20:38;100810.72;;;16.25;100.00
9077;BME280;4574;51.072;17.174;2022-10-29T08:23:07;100810.03;;;16.31;100.00
9077;BME280;4574;51.072;17.174;2022-10-29T08:25:35;100795.19;;;16.28;100.00
9077;BME280;4574;51.072;17.174;2022-10-29T08:28:09;63291.66;;;-139.42;100.00
9077;BME280;4574;51.072;17.174;2022-10-29T08:30:39;63291.66;;;-139.42;100.00
9077;BME280;4574;51.072;17.174;2022-10-29T08:33:08;63291.66;;;-139.42;100.00
9077;BME280;4574;51.072;17.174;2022-10-29T08:35:36;63291.66;;;-139.42;100.00
9077;BME280;4574;51.072;17.174;2022-10-29T08:38:05;63291.66;;;-139.42;100.00
9077;BME280;4574;51.072;17.174;2022-10-29T08:40:44;63291.66;;;-139.42;100.00
9077;BME280;4574;51.072;17.174;2022-10-29T08:43:51;63291.66;;;-139.42;100.00
9077;BME280;4574;51.072;17.174;2022-10-29T08:46:36;63291.66;;;-139.42;100.00
9077;BME280;4574;51.072;17.174;2022-10-29T08:49:12;63291.66;;;-139.42;100.00
9077;BME280;4574;51.072;17.174;2022-10-29T08:51:43;63291.66;;;-139.42;100.00
9077;BME280;4574;51.072;17.174;2022-10-29T08:54:16;63291.66;;;-139.42;100.00
9077;BME280;4574;51.072;17.174;2022-10-29T08:57:00;63291.66;;;-139.42;100.00
9077;BME280;4574;51.072;17.174;2022-10-29T08:59:36;63291.66;;;-139.42;100.00
9077;BME280;4574;51.072;17.174;2022-10-29T09:02:13;63291.66;;;-139.42;100.00
9077;BME280;4574;51.072;17.174;2022-10-29T09:04:43;63291.66;;;-139.42;100.00
9077;BME280;4574;51.072;17.174;2022-10-29T09:07:32;63291.66;;;-139.42;100.00
9077;BME280;4574;51.072;17.174;2022-10-29T09:10:11;63291.66;;;-139.42;100.00
9077;BME280;4574;51.072;17.174;2022-10-29T09:15:41;63291.66;;;-139.42;100.00
9077;BME280;4574;51.072;17.174;2022-10-29T09:18:30;63291.66;;;-139.42;100.00
9077;BME280;4574;51.072;17.174;2022-10-29T09:21:09;63291.66;;;-139.42;100.00
9077;BME280;4574;51.072;17.174;2022-10-29T09:23:54;63291.66;;;-139.42;100.00
9077;BME280;4574;51.072;17.174;2022-10-29T09:26:29;63291.66;;;-139.42;100.00
9077;BME280;4574;51.072;17.174;2022-10-29T09:29:24;63291.66;;;-139.42;100.00
9077;BME280;4574;51.072;17.174;2022-10-29T09:31:58;63291.66;;;-139.42;100.00
9077;BME280;4574;51.072;17.174;2022-10-29T09:34:34;63291.66;;;-139.42;100.00
9077;BME280;4574;51.072;17.174;2022-10-29T09:37:13;63291.66;;;-139.42;100.00
9077;BME280;4574;51.072;17.174;2022-10-29T09:39:44;63291.66;;;-139.42;100.00
9077;BME280;4574;51.072;17.174;2022-10-29T09:42:17;63291.66;;;-139.42;100.00
9077;BME280;4574;51.072;17.174;2022-10-29T09:44:51;63291.66;;;-139.42;100.00
9077;BME280;4574;51.072;17.174;2022-10-29T09:47:30;63291.66;;;-139.42;100.00
9077;BME280;4574;51.072;17.174;2022-10-29T09:50:09;63291.66;;;-139.42;100.00
9077;BME280;4574;51.072;17.174;2022-10-29T09:52:40;63291.66;;;-139.42;100.00
9077;BME280;4574;51.072;17.174;2022-10-29T09:55:16;63291.66;;;-139.42;100.00
9077;BME280;4574;51.072;17.174;2022-10-29T09:57:46;63291.66;;;-139.42;100.00
9077;BME280;4574;51.072;17.174;2022-10-29T10:00:18;63291.66;;;-139.42;100.00
9077;BME280;4574;51.072;17.174;2022-10-29T10:02:51;63291.66;;;-139.42;100.00
9077;BME280;4574;51.072;17.174;2022-10-29T10:05:26;63291.66;;;-139.42;100.00
9077;BME280;4574;51.072;17.174;2022-10-29T10:08:04;63291.66;;;-139.42;100.00
9077;BME280;4574;51.072;17.174;2022-10-29T10:10:35;63291.66;;;-139.42;100.00
9077;BME280;4574;51.072;17.174;2022-10-29T10:13:05;63291.66;;;-139.42;100.00
9077;BME280;4574;51.072;17.174;2022-10-29T10:15:38;63291.66;;;-139.42;100.00
9077;BME280;4574;51.072;17.174;2022-10-29T10:18:17;63291.66;;;-139.42;100.00
9077;BME280;4574;51.072;17.174;2022-10-29T10:20:59;63291.66;;;-139.42;100.00
9077;BME280;4574;51.072;17.174;2022-10-29T10:23:31;63291.66;;;-139.42;100.00
9077;BME280;4574;51.072;17.174;2022-10-29T10:26:26;63291.66;;;-139.42;100.00
9077;BME280;4574;51.072;17.174;2022-10-29T10:29:09;63291.66;;;-139.42;100.00
9077;BME280;4574;51.072;17.174;2022-10-29T10:31:38;63291.66;;;-139.42;100.00
9077;BME280;4574;51.072;17.174;2022-10-29T10:34:11;63291.66;;;-139.42;100.00
9077;BME280;4574;51.072;17.174;2022-10-29T10:36:45;63291.66;;;-139.42;100.00
9077;BME280;4574;51.072;17.174;2022-10-29T10:39:26;63291.66;;;-139.42;100.00
9077;BME280;4574;51.072;17.174;2022-10-29T10:41:57;63291.66;;;-139.42;100.00
9077;BME280;4574;51.072;17.174;2022-10-29T10:44:26;63291.66;;;-139.42;100.00
9077;BME280;4574;51.072;17.174;2022-10-29T10:46:58;63291.66;;;-139.42;100.00
9077;BME280;4574;51.072;17.174;2022-10-29T10:49:33;63291.66;;;-139.42;100.00
9077;BME280;4574;51.072;17.174;2022-10-29T10:52:11;63291.66;;;-139.42;100.00
9077;BME280;4574;51.072;17.174;2022-10-29T10:54:44;63291.66;;;-139.42;100.00
9077;BME280;4574;51.072;17.174;2022-10-29T10:57:21;63291.66;;;-139.42;100.00
9077;BME280;4574;51.072;17.174;2022-10-29T11:00:01;63291.66;;;-139.42;100.00
9077;BME280;4574;51.072;17.174;2022-10-29T11:02:36;63291.66;;;-139.42;100.00
9077;BME280;4574;51.072;17.174;2022-10-29T11:05:13;63291.66;;;-139.42;100.00
9077;BME280;4574;51.072;17.174;2022-10-29T11:07:50;63291.66;;;-139.42;100.00
9077;BME280;4574;51.072;17.174;2022-10-29T11:10:24;63291.66;;;-139.42;100.00
9077;BME280;4574;51.072;17.174;2022-10-29T11:12:55;63291.66;;;-139.42;100.00
9077;BME280;4574;51.072;17.174;2022-10-29T11:15:32;63291.66;;;-139.42;100.00
9077;BME280;4574;51.072;17.174;2022-10-29T11:18:09;63291.66;;;-139.42;100.00
9077;BME280;4574;51.072;17.174;2022-10-29T11:20:44;63291.66;;;-139.42;100.00
9077;BME280;4574;51.072;17.174;2022-10-29T11:23:29;63291.66;;;-139.42;100.00
9077;BME280;4574;51.072;17.174;2022-10-29T11:26:04;63291.66;;;-139.42;100.00
9077;BME280;4574;51.072;17.174;2022-10-29T11:28:38;63291.66;;;-139.42;100.00
9077;BME280;4574;51.072;17.174;2022-10-29T11:31:13;63291.66;;;-139.42;100.00
9077;BME280;4574;51.072;17.174;2022-10-29T11:33:49;63291.66;;;-139.42;100.00
9077;BME280;4574;51.072;17.174;2022-10-29T11:36:22;63291.66;;;-139.42;100.00
9077;BME280;4574;51.072;17.174;2022-10-29T11:38:55;63291.66;;;-139.42;100.00
9077;BME280;4574;51.072;17.174;2022-10-29T11:41:32;63291.66;;;-139.42;100.00
9077;BME280;4574;51.072;17.174;2022-10-29T11:44:02;63291.66;;;-139.42;100.00
9077;BME280;4574;51.072;17.174;2022-10-29T11:46:36;63291.66;;;-139.42;100.00
9077;BME280;4574;51.072;17.174;2022-10-29T11:49:20;63291.66;;;-139.42;100.00
9077;BME280;4574;51.072;17.174;2022-10-29T11:52:01;63291.66;;;-139.42;100.00
9077;BME280;4574;51.072;17.174;2022-10-29T11:54:52;63291.66;;;-139.42;100.00
9077;BME280;4574;51.072;17.174;2022-10-29T11:57:30;63291.66;;;-139.42;100.00
9077;BME280;4574;51.072;17.174;2022-10-29T12:00:11;63291.66;;;-139.42;100.00
9077;BME280;4574;51.072;17.174;2022-10-29T12:03:08;63291.66;;;-139.42;100.00
9077;BME280;4574;51.072;17.174;2022-10-29T12:05:43;63291.66;;;-139.42;100.00
9077;BME280;4574;51.072;17.174;2022-10-29T12:08:25;63291.66;;;-139.42;100.00
9077;BME280;4574;51.072;17.174;2022-10-29T12:11:06;63291.66;;;-139.42;100.00
9077;BME280;4574;51.072;17.174;2022-10-29T12:13:45;63291.66;;;-139.42;100.00
9077;BME280;4574;51.072;17.174;2022-10-29T12:16:25;63291.66;;;-139.42;100.00
9077;BME280;4574;51.072;17.174;2022-10-29T12:19:05;63291.66;;;-139.42;100.00
9077;BME280;4574;51.072;17.174;2022-10-29T12:21:41;63291.66;;;-139.42;100.00
9077;BME280;4574;51.072;17.174;2022-10-29T12:24:21;63291.66;;;-139.42;100.00
9077;BME280;4574;51.072;17.174;2022-10-29T12:27:00;63291.66;;;-139.42;100.00
9077;BME280;4574;51.072;17.174;2022-10-29T12:29:34;63291.66;;;-139.42;100.00
9077;BME280;4574;51.072;17.174;2022-10-29T12:32:14;63291.66;;;-139.42;100.00
9077;BME280;4574;51.072;17.174;2022-10-29T12:34:51;63291.66;;;-139.42;100.00
9077;BME280;4574;51.072;17.174;2022-10-29T12:37:31;63291.66;;;-139.42;100.00
9077;BME280;4574;51.072;17.174;2022-10-29T12:40:13;63291.66;;;-139.42;100.00
9077;BME280;4574;51.072;17.174;2022-10-29T12:42:45;63291.66;;;-139.42;100.00
9077;BME280;4574;51.072;17.174;2022-10-29T12:45:29;63291.66;;;-139.42;100.00
9077;BME280;4574;51.072;17.174;2022-10-29T12:48:25;63291.66;;;-139.42;100.00
9077;BME280;4574;51.072;17.174;2022-10-29T12:51:04;63291.66;;;-139.42;100.00
9077;BME280;4574;51.072;17.174;2022-10-29T12:53:40;63291.66;;;-139.42;100.00
9077;BME280;4574;51.072;17.174;2022-10-29T12:56:12;63291.66;;;-139.42;100.00
9077;BME280;4574;51.072;17.174;2022-10-29T12:58:48;63291.66;;;-139.42;100.00
9077;BME280;4574;51.072;17.174;2022-10-29T13:01:43;63291.66;;;-139.42;100.00
9077;BME280;4574;51.072;17.174;2022-10-29T13:04:35;63291.66;;;-139.42;100.00
9077;BME280;4574;51.072;17.174;2022-10-29T13:07:08;63291.66;;;-139.42;100.00
9077;BME280;4574;51.072;17.174;2022-10-29T13:13:00;63291.66;;;-139.42;100.00
9077;BME280;4574;51.072;17.174;2022-10-29T13:15:34;63291.66;;;-139.42;100.00
9077;BME280;4574;51.072;17.174;2022-10-29T13:18:20;63291.66;;;-139.42;100.00
9077;BME280;4574;51.072;17.174;2022-10-29T13:20:53;63291.66;;;-139.42;100.00
9077;BME280;4574;51.072;17.174;2022-10-29T13:23:32;63291.66;;;-139.42;100.00
9077;BME280;4574;51.072;17.174;2022-10-29T13:26:04;63291.66;;;-139.42;100.00
9077;BME280;4574;51.072;17.174;2022-10-29T13:28:48;63291.66;;;-139.42;100.00